sensor_id;sensor_type;location;lat;lon;timestamp;pressure;altitude;pressure_sealevel;temperature
85096;BMP280;75436;53.502;10.030;2024-03-25T00:00:53;99659.28;;;6.55
85096;BMP280;75436;53.502;10.030;2024-03-25T00:03:19;99676.78;;;6.63
85096;BMP280;75436;53.502;10.030;2024-03-25T00:05:44;99669.13;;;6.58
85096;BMP280;75436;53.502;10.030;2024-03-25T00:08:10;99676.31;;;6.70
85096;BMP280;75436;53.502;10.030;2024-03-25T00:10:35;99708.63;;;6.77
85096;BMP280;75436;53.502;10.030;2024-03-25T00:13:02;99716.94;;;6.79
85096;BMP280;75436;53.502;10.030;2024-03-25T00:15:27;99707.44;;;6.66
85096;BMP280;75436;53.502;10.030;2024-03-25T00:17:53;99726.47;;;6.75
85096;BMP280;75436;53.502;10.030;2024-03-25T00:20:18;99727.53;;;6.66
85096;BMP280;75436;53.502;10.030;2024-03-25T00:22:43;99728.28;;;6.83
85096;BMP280;75436;53.502;10.030;2024-03-25T00:25:09;99752.09;;;6.82
85096;BMP280;75436;53.502;10.030;2024-03-25T00:27:34;99765.16;;;6.73
85096;BMP280;75436;53.502;10.030;2024-03-25T00:30:00;99780.16;;;6.76
85096;BMP280;75436;53.502;10.030;2024-03-25T00:32:26;99805.03;;;6.90
85096;BMP280;75436;53.502;10.030;2024-03-25T00:34:51;99813.81;;;6.86
85096;BMP280;75436;53.502;10.030;2024-03-25T00:37:16;99826.50;;;6.96
85096;BMP280;75436;53.502;10.030;2024-03-25T00:39:42;99811.03;;;6.82
85096;BMP280;75436;53.502;10.030;2024-03-25T00:42:07;99801.97;;;6.72
85096;BMP280;75436;53.502;10.030;2024-03-25T00:44:32;99799.19;;;6.77
85096;BMP280;75436;53.502;10.030;2024-03-25T00:46:58;99803.97;;;6.75
85096;BMP280;75436;53.502;10.030;2024-03-25T00:49:23;99785.69;;;6.66
85096;BMP280;75436;53.502;10.030;2024-03-25T00:51:49;99757.47;;;6.60
85096;BMP280;75436;53.502;10.030;2024-03-25T00:54:14;99727.88;;;6.56
85096;BMP280;75436;53.502;10.030;2024-03-25T00:56:39;99708.56;;;6.40
85096;BMP280;75436;53.502;10.030;2024-03-25T00:59:05;99672.06;;;6.40
85096;BMP280;75436;53.502;10.030;2024-03-25T01:01:34;99657.38;;;6.19
85096;BMP280;75436;53.502;10.030;2024-03-25T01:04:03;99656.91;;;6.34
85096;BMP280;75436;53.502;10.030;2024-03-25T01:06:29;99660.53;;;6.41
85096;BMP280;75436;53.502;10.030;2024-03-25T01:08:55;99667.78;;;6.44
85096;BMP280;75436;53.502;10.030;2024-03-25T01:11:20;99681.84;;;6.51
85096;BMP280;75436;53.502;10.030;2024-03-25T01:13:46;99690.00;;;6.58
85096;BMP280;75436;53.502;10.030;2024-03-25T01:16:12;99688.91;;;6.51
85096;BMP280;75436;53.502;10.030;2024-03-25T01:18:37;99669.75;;;6.39
85096;BMP280;75436;53.502;10.030;2024-03-25T01:21:03;99660.44;;;6.38
85096;BMP280;75436;53.502;10.030;2024-03-25T01:23:29;99654.88;;;6.39
85096;BMP280;75436;53.502;10.030;2024-03-25T01:25:55;99649.81;;;6.43
85096;BMP280;75436;53.502;10.030;2024-03-25T01:28:20;99659.50;;;6.34
85096;BMP280;75436;53.502;10.030;2024-03-25T01:30:46;99672.19;;;6.60
85096;BMP280;75436;53.502;10.030;2024-03-25T01:33:11;99682.00;;;6.63
85096;BMP280;75436;53.502;10.030;2024-03-25T01:35:37;99704.84;;;6.75
85096;BMP280;75436;53.502;10.030;2024-03-25T01:38:02;99709.72;;;6.76
85096;BMP280;75436;53.502;10.030;2024-03-25T01:40:28;99718.13;;;6.90
85096;BMP280;75436;53.502;10.030;2024-03-25T01:42:57;99728.75;;;6.77
85096;BMP280;75436;53.502;10.030;2024-03-25T01:45:29;99709.28;;;6.66
85096;BMP280;75436;53.502;10.030;2024-03-25T01:47:56;99704.84;;;6.75
85096;BMP280;75436;53.502;10.030;2024-03-25T01:50:24;99709.59;;;6.73
85096;BMP280;75436;53.502;10.030;2024-03-25T01:52:51;99711.13;;;6.65
85096;BMP280;75436;53.502;10.030;2024-03-25T01:55:26;99712.34;;;6.76
85096;BMP280;75436;53.502;10.030;2024-03-25T01:57:53;99709.91;;;6.71
85096;BMP280;75436;53.502;10.030;2024-03-25T02:00:19;99711.91;;;6.74
85096;BMP280;75436;53.502;10.030;2024-03-25T02:02:46;99719.06;;;6.77
85096;BMP280;75436;53.502;10.030;2024-03-25T02:05:15;99736.44;;;6.82
85096;BMP280;75436;53.502;10.030;2024-03-25T02:07:43;99749.78;;;6.80
85096;BMP280;75436;53.502;10.030;2024-03-25T02:10:09;99739.19;;;6.77
85096;BMP280;75436;53.502;10.030;2024-03-25T02:12:36;99740.84;;;6.89
85096;BMP280;75436;53.502;10.030;2024-03-25T02:15:04;99759.59;;;6.83
85096;BMP280;75436;53.502;10.030;2024-03-25T02:17:30;99752.22;;;6.77
85096;BMP280;75436;53.502;10.030;2024-03-25T02:19:55;99737.53;;;6.72
85096;BMP280;75436;53.502;10.030;2024-03-25T02:22:21;99741.22;;;6.71
85096;BMP280;75436;53.502;10.030;2024-03-25T02:24:49;99736.16;;;6.75
85096;BMP280;75436;53.502;10.030;2024-03-25T02:27:17;99735.19;;;6.79
85096;BMP280;75436;53.502;10.030;2024-03-25T02:29:43;99714.19;;;6.76
85096;BMP280;75436;53.502;10.030;2024-03-25T02:32:09;99711.44;;;6.72
85096;BMP280;75436;53.502;10.030;2024-03-25T02:34:45;99704.50;;;6.76
85096;BMP280;75436;53.502;10.030;2024-03-25T02:37:17;99715.91;;;6.72
85096;BMP280;75436;53.502;10.030;2024-03-25T02:39:43;99736.75;;;6.80
85096;BMP280;75436;53.502;10.030;2024-03-25T02:42:09;99737.53;;;6.72
85096;BMP280;75436;53.502;10.030;2024-03-25T02:44:34;99749.81;;;6.63
85096;BMP280;75436;53.502;10.030;2024-03-25T02:47:01;99749.81;;;6.63
85096;BMP280;75436;53.502;10.030;2024-03-25T02:49:27;99743.84;;;6.63
85096;BMP280;75436;53.502;10.030;2024-03-25T02:51:53;99781.09;;;6.80
85096;BMP280;75436;53.502;10.030;2024-03-25T02:54:18;99788.00;;;6.68
85096;BMP280;75436;53.502;10.030;2024-03-25T02:56:44;99784.47;;;6.55
85096;BMP280;75436;53.502;10.030;2024-03-25T02:59:10;99781.13;;;6.63
85096;BMP280;75436;53.502;10.030;2024-03-25T03:01:35;99791.25;;;6.56
85096;BMP280;75436;53.502;10.030;2024-03-25T03:04:00;99794.91;;;6.64
85096;BMP280;75436;53.502;10.030;2024-03-25T03:06:26;99810.41;;;6.69
85096;BMP280;75436;53.502;10.030;2024-03-25T03:08:51;99814.84;;;6.68
85096;BMP280;75436;53.502;10.030;2024-03-25T03:11:17;99820.53;;;6.62
85096;BMP280;75436;53.502;10.030;2024-03-25T03:13:42;99822.66;;;6.51
85096;BMP280;75436;53.502;10.030;2024-03-25T03:16:07;99838.66;;;6.58
85096;BMP280;75436;53.502;10.030;2024-03-25T03:18:33;99837.09;;;6.57
85096;BMP280;75436;53.502;10.030;2024-03-25T03:20:58;99845.38;;;6.51
85096;BMP280;75436;53.502;10.030;2024-03-25T03:23:23;99841.28;;;6.50
85096;BMP280;75436;53.502;10.030;2024-03-25T03:25:49;99855.06;;;6.59
85096;BMP280;75436;53.502;10.030;2024-03-25T03:28:15;99870.53;;;6.55
85096;BMP280;75436;53.502;10.030;2024-03-25T03:30:42;99874.38;;;6.50
85096;BMP280;75436;53.502;10.030;2024-03-25T03:33:07;99890.97;;;6.62
85096;BMP280;75436;53.502;10.030;2024-03-25T03:35:33;99899.38;;;6.51
85096;BMP280;75436;53.502;10.030;2024-03-25T03:37:59;99880.81;;;6.44
85096;BMP280;75436;53.502;10.030;2024-03-25T03:40:24;99859.31;;;6.38
85096;BMP280;75436;53.502;10.030;2024-03-25T03:42:50;99871.25;;;6.39
85096;BMP280;75436;53.502;10.030;2024-03-25T03:45:15;99872.03;;;6.31
85096;BMP280;75436;53.502;10.030;2024-03-25T03:47:40;99855.16;;;6.29
85096;BMP280;75436;53.502;10.030;2024-03-25T03:50:06;99882.78;;;6.38
85096;BMP280;75436;53.502;10.030;2024-03-25T03:52:32;99900.72;;;6.40
85096;BMP280;75436;53.502;10.030;2024-03-25T03:54:58;99917.47;;;6.47
85096;BMP280;75436;53.502;10.030;2024-03-25T03:57:23;99931.75;;;6.50
85096;BMP280;75436;53.502;10.030;2024-03-25T03:59:51;99929.47;;;6.48
85096;BMP280;75436;53.502;10.030;2024-03-25T04:02:16;99954.88;;;6.43
85096;BMP280;75436;53.502;10.030;2024-03-25T04:04:42;99954.88;;;6.43
85096;BMP280;75436;53.502;10.030;2024-03-25T04:07:07;99972.09;;;6.44
85096;BMP280;75436;53.502;10.030;2024-03-25T04:09:33;99989.72;;;6.47
85096;BMP280;75436;53.502;10.030;2024-03-25T04:11:58;99986.56;;;6.28
85096;BMP280;75436;53.502;10.030;2024-03-25T04:14:23;99996.31;;;6.44
85096;BMP280;75436;53.502;10.030;2024-03-25T04:16:49;99999.94;;;6.35
85096;BMP280;75436;53.502;10.030;2024-03-25T04:19:16;99987.03;;;6.30
85096;BMP280;75436;53.502;10.030;2024-03-25T04:21:41;99987.03;;;6.30
85096;BMP280;75436;53.502;10.030;2024-03-25T04:24:07;99999.81;;;6.40
85096;BMP280;75436;53.502;10.030;2024-03-25T04:26:33;100013.91;;;6.39
85096;BMP280;75436;53.502;10.030;2024-03-25T04:28:59;100014.63;;;6.31
85096;BMP280;75436;53.502;10.030;2024-03-25T04:31:24;100015.59;;;6.35
85096;BMP280;75436;53.502;10.030;2024-03-25T04:33:49;100031.25;;;6.43
85096;BMP280;75436;53.502;10.030;2024-03-25T04:36:15;100041.38;;;6.36
85096;BMP280;75436;53.502;10.030;2024-03-25T04:38:40;100041.09;;;6.38
85096;BMP280;75436;53.502;10.030;2024-03-25T04:41:06;100032.91;;;6.39
85096;BMP280;75436;53.502;10.030;2024-03-25T04:43:31;100023.06;;;6.28
85096;BMP280;75436;53.502;10.030;2024-03-25T04:46:00;100021.19;;;6.20
85096;BMP280;75436;53.502;10.030;2024-03-25T04:48:26;100012.41;;;6.16
85096;BMP280;75436;53.502;10.030;2024-03-25T04:50:51;100017.19;;;6.14
85096;BMP280;75436;53.502;10.030;2024-03-25T04:53:17;100015.69;;;6.21
85096;BMP280;75436;53.502;10.030;2024-03-25T04:55:42;100011.63;;;6.07
85096;BMP280;75436;53.502;10.030;2024-03-25T04:58:08;100008.13;;;6.12
85096;BMP280;75436;53.502;10.030;2024-03-25T05:00:34;100005.44;;;6.03
85096;BMP280;75436;53.502;10.030;2024-03-25T05:03:00;100005.44;;;6.03
85096;BMP280;75436;53.502;10.030;2024-03-25T05:05:25;100003.94;;;6.02
85096;BMP280;75436;53.502;10.030;2024-03-25T05:07:51;99980.63;;;5.97
85096;BMP280;75436;53.502;10.030;2024-03-25T05:10:16;100011.03;;;6.10
85096;BMP280;75436;53.502;10.030;2024-03-25T05:12:42;100013.09;;;6.00
85096;BMP280;75436;53.502;10.030;2024-03-25T05:15:09;100008.66;;;6.00
85096;BMP280;75436;53.502;10.030;2024-03-25T05:17:36;99985.44;;;5.90
85096;BMP280;75436;53.502;10.030;2024-03-25T05:20:02;99971.34;;;5.83
85096;BMP280;75436;53.502;10.030;2024-03-25T05:22:30;99951.78;;;5.72
85096;BMP280;75436;53.502;10.030;2024-03-25T05:24:55;99940.28;;;5.73
85096;BMP280;75436;53.502;10.030;2024-03-25T05:27:21;99936.75;;;5.69
85096;BMP280;75436;53.502;10.030;2024-03-25T05:29:46;99913.03;;;5.71
85096;BMP280;75436;53.502;10.030;2024-03-25T05:32:13;99904.50;;;5.57
85096;BMP280;75436;53.502;10.030;2024-03-25T05:34:40;99903.75;;;5.57
85096;BMP280;75436;53.502;10.030;2024-03-25T05:37:05;99914.50;;;5.55
85096;BMP280;75436;53.502;10.030;2024-03-25T05:39:31;99897.53;;;5.44
85096;BMP280;75436;53.502;10.030;2024-03-25T05:41:56;99905.19;;;5.41
85096;BMP280;75436;53.502;10.030;2024-03-25T05:44:21;99901.34;;;5.38
85096;BMP280;75436;53.502;10.030;2024-03-25T05:46:47;99907.31;;;5.39
85096;BMP280;75436;53.502;10.030;2024-03-25T05:49:12;99907.25;;;5.30
85096;BMP280;75436;53.502;10.030;2024-03-25T05:51:37;99907.25;;;5.30
85096;BMP280;75436;53.502;10.030;2024-03-25T05:54:03;99900.41;;;5.34
85096;BMP280;75436;53.502;10.030;2024-03-25T05:56:28;99906.16;;;5.31
85096;BMP280;75436;53.502;10.030;2024-03-25T05:58:57;99924.72;;;5.30
85096;BMP280;75436;53.502;10.030;2024-03-25T06:01:23;99918.78;;;5.38
85096;BMP280;75436;53.502;10.030;2024-03-25T06:03:48;99933.50;;;5.42
85096;BMP280;75436;53.502;10.030;2024-03-25T06:06:14;99930.19;;;5.50
85096;BMP280;75436;53.502;10.030;2024-03-25T06:08:39;99948.75;;;5.57
85096;BMP280;75436;53.502;10.030;2024-03-25T06:11:04;99957.91;;;5.68
85096;BMP280;75436;53.502;10.030;2024-03-25T06:13:30;99965.56;;;5.73
85096;BMP280;75436;53.502;10.030;2024-03-25T06:15:56;99986.69;;;5.71
85096;BMP280;75436;53.502;10.030;2024-03-25T06:18:21;100006.00;;;5.92
85096;BMP280;75436;53.502;10.030;2024-03-25T06:20:47;100022.25;;;5.89
85096;BMP280;75436;53.502;10.030;2024-03-25T06:23:25;100032.34;;;5.90
85096;BMP280;75436;53.502;10.030;2024-03-25T06:25:53;100049.47;;;6.05
85096;BMP280;75436;53.502;10.030;2024-03-25T06:28:20;100056.88;;;6.11
85096;BMP280;75436;53.502;10.030;2024-03-25T06:30:46;100055.34;;;6.10
85096;BMP280;75436;53.502;10.030;2024-03-25T06:33:31;100069.28;;;6.06
85096;BMP280;75436;53.502;10.030;2024-03-25T06:36:16;100070.50;;;6.08
85096;BMP280;75436;53.502;10.030;2024-03-25T06:38:42;100075.88;;;6.12
85096;BMP280;75436;53.502;10.030;2024-03-25T06:41:08;100090.69;;;6.24
85096;BMP280;75436;53.502;10.030;2024-03-25T06:43:34;100093.69;;;6.18
85096;BMP280;75436;53.502;10.030;2024-03-25T06:46:00;100081.94;;;6.21
85096;BMP280;75436;53.502;10.030;2024-03-25T06:48:25;100089.56;;;6.17
85096;BMP280;75436;53.502;10.030;2024-03-25T06:50:54;100085.41;;;6.16
85096;BMP280;75436;53.502;10.030;2024-03-25T06:53:24;100075.41;;;6.10
85096;BMP280;75436;53.502;10.030;2024-03-25T06:55:59;100064.09;;;6.14
85096;BMP280;75436;53.502;10.030;2024-03-25T06:58:27;100055.69;;;6.17
85096;BMP280;75436;53.502;10.030;2024-03-25T07:00:54;100057.97;;;6.10
85096;BMP280;75436;53.502;10.030;2024-03-25T07:03:22;100027.91;;;6.13
85096;BMP280;75436;53.502;10.030;2024-03-25T07:05:50;100036.19;;;6.15
85096;BMP280;75436;53.502;10.030;2024-03-25T07:08:18;100034.78;;;6.09
85096;BMP280;75436;53.502;10.030;2024-03-25T07:10:45;100012.72;;;6.15
85096;BMP280;75436;53.502;10.030;2024-03-25T07:13:11;100001.03;;;6.34
85096;BMP280;75436;53.502;10.030;2024-03-25T07:15:37;100006.81;;;6.31
85096;BMP280;75436;53.502;10.030;2024-03-25T07:18:03;100035.44;;;6.14
85096;BMP280;75436;53.502;10.030;2024-03-25T07:20:30;100026.75;;;6.27
85096;BMP280;75436;53.502;10.030;2024-03-25T07:22:56;100017.09;;;6.27
85096;BMP280;75436;53.502;10.030;2024-03-25T07:25:22;100032.09;;;6.22
85096;BMP280;75436;53.502;10.030;2024-03-25T07:27:48;100027.28;;;6.16
85096;BMP280;75436;53.502;10.030;2024-03-25T07:30:14;100038.69;;;6.20
85096;BMP280;75436;53.502;10.030;2024-03-25T07:32:40;100041.88;;;6.17
85096;BMP280;75436;53.502;10.030;2024-03-25T07:35:05;100059.28;;;6.29
85096;BMP280;75436;53.502;10.030;2024-03-25T07:37:33;100049.00;;;6.33
85096;BMP280;75436;53.502;10.030;2024-03-25T07:39:58;100047.19;;;6.33
85096;BMP280;75436;53.502;10.030;2024-03-25T07:42:24;100053.06;;;6.47
85096;BMP280;75436;53.502;10.030;2024-03-25T07:44:50;100065.19;;;6.51
85096;BMP280;75436;53.502;10.030;2024-03-25T07:47:15;100051.00;;;6.66
85096;BMP280;75436;53.502;10.030;2024-03-25T07:49:40;100054.44;;;6.75
85096;BMP280;75436;53.502;10.030;2024-03-25T07:52:06;100046.91;;;6.90
85096;BMP280;75436;53.502;10.030;2024-03-25T07:54:32;100079.97;;;6.64
85096;BMP280;75436;53.502;10.030;2024-03-25T07:56:57;100074.22;;;6.76
85096;BMP280;75436;53.502;10.030;2024-03-25T07:59:23;100065.72;;;6.62
85096;BMP280;75436;53.502;10.030;2024-03-25T08:01:48;100061.16;;;6.76
85096;BMP280;75436;53.502;10.030;2024-03-25T08:04:13;100053.13;;;6.64
85096;BMP280;75436;53.502;10.030;2024-03-25T08:06:39;100055.19;;;6.37
85096;BMP280;75436;53.502;10.030;2024-03-25T08:09:04;100050.00;;;6.45
85096;BMP280;75436;53.502;10.030;2024-03-25T08:11:34;100051.63;;;6.63
85096;BMP280;75436;53.502;10.030;2024-03-25T08:13:59;100059.75;;;6.61
85096;BMP280;75436;53.502;10.030;2024-03-25T08:16:25;100057.63;;;6.63
85096;BMP280;75436;53.502;10.030;2024-03-25T08:18:50;100069.00;;;6.76
85096;BMP280;75436;53.502;10.030;2024-03-25T08:21:16;100069.97;;;6.88
85096;BMP280;75436;53.502;10.030;2024-03-25T08:23:45;100105.19;;;7.07
85096;BMP280;75436;53.502;10.030;2024-03-25T08:26:11;100116.13;;;7.17
85096;BMP280;75436;53.502;10.030;2024-03-25T08:28:37;100116.34;;;7.54
85096;BMP280;75436;53.502;10.030;2024-03-25T08:31:03;100214.84;;;7.54
85096;BMP280;75436;53.502;10.030;2024-03-25T08:33:29;100214.41;;;7.77
85096;BMP280;75436;53.502;10.030;2024-03-25T08:35:55;100215.28;;;7.47
85096;BMP280;75436;53.502;10.030;2024-03-25T08:38:20;100234.31;;;7.40
85096;BMP280;75436;53.502;10.030;2024-03-25T08:40:46;100221.13;;;7.53
85096;BMP280;75436;53.502;10.030;2024-03-25T08:43:11;100218.72;;;7.73
85096;BMP280;75436;53.502;10.030;2024-03-25T08:45:37;100221.28;;;7.48
85096;BMP280;75436;53.502;10.030;2024-03-25T08:48:08;100230.06;;;7.60
85096;BMP280;75436;53.502;10.030;2024-03-25T08:50:33;100216.69;;;7.53
85096;BMP280;75436;53.502;10.030;2024-03-25T08:52:59;100228.09;;;7.82
85096;BMP280;75436;53.502;10.030;2024-03-25T08:55:24;100253.53;;;8.15
85096;BMP280;75436;53.502;10.030;2024-03-25T08:57:49;100327.72;;;8.44
85096;BMP280;75436;53.502;10.030;2024-03-25T09:00:17;100374.81;;;8.36
85096;BMP280;75436;53.502;10.030;2024-03-25T09:02:43;100374.00;;;8.19
85096;BMP280;75436;53.502;10.030;2024-03-25T09:05:09;100362.69;;;8.02
85096;BMP280;75436;53.502;10.030;2024-03-25T09:07:35;100340.78;;;7.73
85096;BMP280;75436;53.502;10.030;2024-03-25T09:10:00;100346.22;;;7.93
85096;BMP280;75436;53.502;10.030;2024-03-25T09:12:45;100354.41;;;8.00
85096;BMP280;75436;53.502;10.030;2024-03-25T09:15:10;100405.56;;;7.84
85096;BMP280;75436;53.502;10.030;2024-03-25T09:17:36;100396.38;;;7.95
85096;BMP280;75436;53.502;10.030;2024-03-25T09:20:02;100419.50;;;8.18
85096;BMP280;75436;53.502;10.030;2024-03-25T09:22:45;100436.66;;;8.32
85096;BMP280;75436;53.502;10.030;2024-03-25T09:25:12;100438.56;;;8.10
85096;BMP280;75436;53.502;10.030;2024-03-25T09:27:39;100454.56;;;8.08
85096;BMP280;75436;53.502;10.030;2024-03-25T09:30:05;100426.13;;;8.07
85096;BMP280;75436;53.502;10.030;2024-03-25T09:32:31;100452.91;;;7.82
85096;BMP280;75436;53.502;10.030;2024-03-25T09:34:59;100444.66;;;7.97
85096;BMP280;75436;53.502;10.030;2024-03-25T09:37:24;100458.69;;;8.01
85096;BMP280;75436;53.502;10.030;2024-03-25T09:39:50;100461.59;;;8.38
85096;BMP280;75436;53.502;10.030;2024-03-25T09:42:21;100494.66;;;8.26
85096;BMP280;75436;53.502;10.030;2024-03-25T09:44:51;100508.19;;;8.28
85096;BMP280;75436;53.502;10.030;2024-03-25T09:47:17;100509.94;;;8.40
85096;BMP280;75436;53.502;10.030;2024-03-25T09:49:43;100502.22;;;8.82
85096;BMP280;75436;53.502;10.030;2024-03-25T09:52:10;100517.94;;;9.32
85096;BMP280;75436;53.502;10.030;2024-03-25T09:54:36;100567.84;;;10.68
85096;BMP280;75436;53.502;10.030;2024-03-25T09:57:02;100575.06;;;10.71
85096;BMP280;75436;53.502;10.030;2024-03-25T09:59:29;100591.38;;;11.54
85096;BMP280;75436;53.502;10.030;2024-03-25T10:01:55;100619.91;;;11.03
85096;BMP280;75436;53.502;10.030;2024-03-25T10:04:21;100609.72;;;10.65
85096;BMP280;75436;53.502;10.030;2024-03-25T10:06:47;100614.78;;;9.62
85096;BMP280;75436;53.502;10.030;2024-03-25T10:09:13;100582.09;;;9.43
85096;BMP280;75436;53.502;10.030;2024-03-25T10:11:38;100581.97;;;8.85
85096;BMP280;75436;53.502;10.030;2024-03-25T10:14:04;100558.16;;;8.56
85096;BMP280;75436;53.502;10.030;2024-03-25T10:16:30;100559.28;;;8.64
85096;BMP280;75436;53.502;10.030;2024-03-25T10:18:55;100546.78;;;8.52
85096;BMP280;75436;53.502;10.030;2024-03-25T10:21:20;100550.69;;;8.71
85096;BMP280;75436;53.502;10.030;2024-03-25T10:23:50;100551.81;;;8.95
85096;BMP280;75436;53.502;10.030;2024-03-25T10:26:26;100570.81;;;9.34
85096;BMP280;75436;53.502;10.030;2024-03-25T10:29:13;100573.41;;;9.43
85096;BMP280;75436;53.502;10.030;2024-03-25T10:31:38;100558.94;;;9.20
85096;BMP280;75436;53.502;10.030;2024-03-25T10:34:03;100560.63;;;8.99
85096;BMP280;75436;53.502;10.030;2024-03-25T10:36:30;100564.22;;;9.37
85096;BMP280;75436;53.502;10.030;2024-03-25T10:38:57;100582.00;;;10.02
85096;BMP280;75436;53.502;10.030;2024-03-25T10:41:27;100592.19;;;9.03
85096;BMP280;75436;53.502;10.030;2024-03-25T10:43:54;100579.09;;;9.11
85096;BMP280;75436;53.502;10.030;2024-03-25T10:46:23;100573.75;;;9.25
85096;BMP280;75436;53.502;10.030;2024-03-25T10:49:11;100600.97;;;9.07
85096;BMP280;75436;53.502;10.030;2024-03-25T10:51:44;100592.84;;;9.25
85096;BMP280;75436;53.502;10.030;2024-03-25T10:54:12;100627.97;;;9.07
85096;BMP280;75436;53.502;10.030;2024-03-25T10:56:38;100610.88;;;9.18
85096;BMP280;75436;53.502;10.030;2024-03-25T10:59:05;100621.91;;;8.98
85096;BMP280;75436;53.502;10.030;2024-03-25T11:01:34;100623.22;;;9.51
85096;BMP280;75436;53.502;10.030;2024-03-25T11:04:01;100643.09;;;10.64
85096;BMP280;75436;53.502;10.030;2024-03-25T11:06:31;100646.59;;;11.33
85096;BMP280;75436;53.502;10.030;2024-03-25T11:08:57;100655.25;;;12.30
85096;BMP280;75436;53.502;10.030;2024-03-25T11:11:24;100648.13;;;11.87
85096;BMP280;75436;53.502;10.030;2024-03-25T11:13:56;100652.84;;;11.21
85096;BMP280;75436;53.502;10.030;2024-03-25T11:16:31;100643.59;;;12.07
85096;BMP280;75436;53.502;10.030;2024-03-25T11:19:03;100643.22;;;11.65
85096;BMP280;75436;53.502;10.030;2024-03-25T11:21:28;100644.00;;;13.27
85096;BMP280;75436;53.502;10.030;2024-03-25T11:23:54;100629.06;;;11.37
85096;BMP280;75436;53.502;10.030;2024-03-25T11:26:30;100634.53;;;11.32
85096;BMP280;75436;53.502;10.030;2024-03-25T11:28:58;100627.50;;;10.96
85096;BMP280;75436;53.502;10.030;2024-03-25T11:31:25;100631.09;;;10.83
85096;BMP280;75436;53.502;10.030;2024-03-25T11:33:52;100631.22;;;10.13
85096;BMP280;75436;53.502;10.030;2024-03-25T11:36:18;100619.38;;;10.52
85096;BMP280;75436;53.502;10.030;2024-03-25T11:38:45;100629.38;;;11.36
85096;BMP280;75436;53.502;10.030;2024-03-25T11:41:12;100625.41;;;12.38
85096;BMP280;75436;53.502;10.030;2024-03-25T11:43:37;100621.28;;;13.50
85096;BMP280;75436;53.502;10.030;2024-03-25T11:46:03;100613.06;;;11.62
85096;BMP280;75436;53.502;10.030;2024-03-25T11:48:29;100623.47;;;10.90
85096;BMP280;75436;53.502;10.030;2024-03-25T11:50:55;100619.56;;;10.76
85096;BMP280;75436;53.502;10.030;2024-03-25T11:53:20;100619.81;;;10.46
85096;BMP280;75436;53.502;10.030;2024-03-25T11:55:46;100625.78;;;10.26
85096;BMP280;75436;53.502;10.030;2024-03-25T11:58:13;100626.06;;;10.33
85096;BMP280;75436;53.502;10.030;2024-03-25T12:00:45;100618.75;;;9.93
85096;BMP280;75436;53.502;10.030;2024-03-25T12:03:14;100622.44;;;10.09
85096;BMP280;75436;53.502;10.030;2024-03-25T12:05:41;100630.06;;;10.39
85096;BMP280;75436;53.502;10.030;2024-03-25T12:08:10;100623.28;;;11.24
85096;BMP280;75436;53.502;10.030;2024-03-25T12:10:37;100621.38;;;12.40
85096;BMP280;75436;53.502;10.030;2024-03-25T12:13:21;100620.28;;;11.54
85096;BMP280;75436;53.502;10.030;2024-03-25T12:15:49;100623.91;;;11.01
85096;BMP280;75436;53.502;10.030;2024-03-25T12:18:15;100613.63;;;11.16
85096;BMP280;75436;53.502;10.030;2024-03-25T12:20:41;100617.78;;;10.97
85096;BMP280;75436;53.502;10.030;2024-03-25T12:23:07;100624.47;;;11.06
85096;BMP280;75436;53.502;10.030;2024-03-25T12:25:32;100623.22;;;10.55
85096;BMP280;75436;53.502;10.030;2024-03-25T12:27:58;100618.66;;;10.35
85096;BMP280;75436;53.502;10.030;2024-03-25T12:30:23;100616.72;;;9.90
85096;BMP280;75436;53.502;10.030;2024-03-25T12:32:50;100618.78;;;9.52
85096;BMP280;75436;53.502;10.030;2024-03-25T12:35:17;100618.16;;;9.55
85096;BMP280;75436;53.502;10.030;2024-03-25T12:37:47;100616.47;;;9.75
85096;BMP280;75436;53.502;10.030;2024-03-25T12:40:25;100614.59;;;9.59
85096;BMP280;75436;53.502;10.030;2024-03-25T12:42:53;100600.00;;;8.86
85096;BMP280;75436;53.502;10.030;2024-03-25T12:45:20;100532.38;;;8.33
85096;BMP280;75436;53.502;10.030;2024-03-25T12:47:46;100465.50;;;8.10
85096;BMP280;75436;53.502;10.030;2024-03-25T12:50:11;100408.00;;;8.27
85096;BMP280;75436;53.502;10.030;2024-03-25T12:52:37;100401.94;;;7.93
85096;BMP280;75436;53.502;10.030;2024-03-25T12:55:02;100402.53;;;8.54
85096;BMP280;75436;53.502;10.030;2024-03-25T12:57:28;100416.69;;;8.53
85096;BMP280;75436;53.502;10.030;2024-03-25T12:59:54;100390.72;;;9.52
85096;BMP280;75436;53.502;10.030;2024-03-25T13:02:19;100460.34;;;10.43
85096;BMP280;75436;53.502;10.030;2024-03-25T13:04:45;100523.22;;;10.60
85096;BMP280;75436;53.502;10.030;2024-03-25T13:07:11;100550.69;;;11.63
85096;BMP280;75436;53.502;10.030;2024-03-25T13:09:36;100601.03;;;12.05
85096;BMP280;75436;53.502;10.030;2024-03-25T13:12:02;100612.44;;;13.42
85096;BMP280;75436;53.502;10.030;2024-03-25T13:14:27;100609.94;;;14.68
85096;BMP280;75436;53.502;10.030;2024-03-25T13:16:53;100613.47;;;12.87
85096;BMP280;75436;53.502;10.030;2024-03-25T13:19:18;100616.25;;;14.82
85096;BMP280;75436;53.502;10.030;2024-03-25T13:21:44;100617.41;;;13.74
85096;BMP280;75436;53.502;10.030;2024-03-25T13:24:09;100620.81;;;13.32
85096;BMP280;75436;53.502;10.030;2024-03-25T13:26:34;100616.16;;;13.02
85096;BMP280;75436;53.502;10.030;2024-03-25T13:29:00;100595.56;;;12.93
85096;BMP280;75436;53.502;10.030;2024-03-25T13:31:25;100596.75;;;11.69
85096;BMP280;75436;53.502;10.030;2024-03-25T13:33:51;100591.28;;;11.42
85096;BMP280;75436;53.502;10.030;2024-03-25T13:36:17;100584.97;;;11.34
85096;BMP280;75436;53.502;10.030;2024-03-25T13:38:43;100584.34;;;10.48
85096;BMP280;75436;53.502;10.030;2024-03-25T13:41:09;100586.94;;;10.12
85096;BMP280;75436;53.502;10.030;2024-03-25T13:43:35;100586.22;;;9.86
85096;BMP280;75436;53.502;10.030;2024-03-25T13:46:00;100580.34;;;9.72
85096;BMP280;75436;53.502;10.030;2024-03-25T13:48:26;100583.41;;;9.91
85096;BMP280;75436;53.502;10.030;2024-03-25T13:50:54;100578.63;;;9.84
85096;BMP280;75436;53.502;10.030;2024-03-25T13:53:20;100577.72;;;9.64
85096;BMP280;75436;53.502;10.030;2024-03-25T13:55:46;100577.56;;;9.85